createdAt,value
2022-08-05T00:03:26.897Z,15.85
2022-08-05T00:08:34.681Z,8.48
2022-08-05T00:13:39.608Z,11.48
2022-08-05T00:18:40.100Z,8.82
2022-08-05T00:23:46.556Z,17.52
2022-08-05T00:28:53.034Z,9.70
2022-08-05T00:34:54.151Z,10.25
2022-08-05T00:39:13.887Z,8.85
2022-08-05T00:44:13.802Z,8.30
2022-08-05T00:49:13.981Z,12.05
2022-08-05T00:54:13.245Z,12.30
2022-08-05T00:59:11.355Z,10.68
2022-08-05T01:04:11.840Z,9.27
2022-08-05T01:09:12.592Z,5.28
2022-08-05T01:14:27.839Z,8.32
2022-08-05T01:25:02.988Z,6.53
2022-08-05T01:30:12.482Z,9.35
2022-08-05T01:35:51.873Z,6.72
2022-08-05T01:40:40.910Z,6.68
2022-08-05T01:45:43.114Z,5.68
2022-08-05T01:50:43.484Z,10.45
2022-08-05T01:55:52.667Z,4.68
2022-08-05T02:00:53.376Z,6.93
2022-08-05T02:05:53.499Z,3.92
2022-08-05T02:11:03.489Z,5.05
2022-08-05T02:16:07.415Z,8.13
2022-08-05T02:21:17.546Z,9.50
2022-08-05T02:26:22.094Z,4.43
2022-08-05T02:31:28.311Z,7.30
2022-08-05T02:36:31.612Z,15.55
2022-08-05T02:41:36.382Z,14.23
2022-08-05T02:47:00.186Z,14.13
2022-08-05T02:52:03.710Z,5.78
2022-08-05T02:57:03.671Z,10.45
2022-08-05T03:02:05.983Z,13.80
2022-08-05T03:07:04.897Z,9.40
2022-08-05T03:12:05.526Z,11.80
2022-08-05T03:17:08.973Z,15.82
2022-08-05T03:22:16.760Z,10.88
2022-08-05T03:27:17.648Z,10.23
2022-08-05T03:32:19.518Z,14.95
2022-08-05T03:37:17.788Z,15.90
2022-08-05T03:42:16.102Z,11.80
2022-08-05T03:47:14.206Z,12.35
2022-08-05T03:52:37.258Z,10.88
2022-08-05T03:57:44.497Z,16.45
2022-08-05T04:02:57.845Z,18.15
2022-08-05T04:07:59.073Z,12.60
2022-08-05T04:12:59.027Z,14.85
2022-08-05T04:17:57.544Z,11.82
2022-08-05T04:22:59.612Z,19.80
2022-08-05T04:28:00.657Z,16.13
2022-08-05T04:33:02.110Z,9.23
2022-08-05T04:38:06.664Z,16.08
2022-08-05T04:43:05.629Z,13.10
2022-08-05T04:48:18.670Z,13.43
2022-08-05T04:53:27.789Z,27.13
2022-08-05T04:58:31.531Z,22.65
2022-08-05T05:03:29.635Z,14.40
2022-08-05T05:08:42.761Z,24.13
2022-08-05T05:13:41.035Z,23.67
2022-08-05T05:19:02.529Z,20.30
2022-08-05T05:24:08.947Z,9.25
2022-08-05T05:29:10.174Z,18.17
2022-08-05T05:34:13.014Z,15.68
2022-08-05T05:39:15.268Z,18.23
2022-08-05T05:44:36.381Z,11.27
2022-08-05T05:49:35.357Z,12.88
2022-08-05T05:54:49.670Z,11.05
2022-08-05T05:59:49.271Z,8.10
2022-08-05T06:04:49.301Z,17.48
2022-08-05T06:10:01.466Z,12.55
2022-08-05T06:15:05.493Z,10.35
2022-08-05T06:20:07.058Z,10.52
2022-08-05T06:25:59.207Z,13.85
2022-08-05T06:30:36.342Z,16.70
2022-08-05T06:36:07.208Z,14.60
2022-08-05T06:40:54.058Z,20.42
2022-08-05T06:46:04.112Z,35.53
2022-08-05T06:51:09.368Z,39.28
2022-08-05T06:56:16.270Z,38.55
2022-08-05T07:01:32.060Z,42.38
2022-08-05T07:06:31.944Z,20.80
2022-08-05T07:11:32.129Z,12.50
2022-08-05T07:17:58.749Z,16.23
2022-08-05T07:22:08.601Z,26.48
2022-08-05T07:27:08.920Z,29.95
2022-08-05T07:32:08.221Z,14.23
2022-08-05T07:37:06.340Z,9.93
2022-08-05T07:42:14.125Z,11.98
2022-08-05T07:47:14.864Z,11.50
2022-08-05T07:52:13.109Z,8.07
2022-08-05T07:57:17.553Z,5.55
2022-08-05T08:03:14.670Z,7.45
2022-08-05T08:08:00.006Z,13.85
2022-08-05T08:13:00.720Z,8.10
2022-08-05T08:18:01.987Z,6.35
2022-08-05T08:23:03.336Z,7.70
2022-08-05T08:28:03.075Z,11.77
2022-08-05T08:33:04.650Z,44.08
2022-08-05T08:38:06.835Z,5.13
2022-08-05T08:44:54.620Z,8.38
2022-08-05T08:49:03.384Z,6.85
2022-08-05T08:53:46.878Z,3.47
2022-08-05T08:58:48.027Z,5.32
2022-08-05T09:03:55.312Z,5.93
2022-08-05T09:08:53.894Z,6.35
2022-08-05T09:14:09.264Z,5.65
2022-08-05T09:19:14.712Z,8.30
2022-08-05T09:24:13.441Z,7.32
2022-08-05T09:29:18.914Z,5.70
2022-08-05T09:34:17.382Z,7.20
2022-08-05T09:39:16.604Z,6.60
2022-08-05T09:44:34.507Z,5.10
2022-08-05T09:49:54.560Z,6.22
2022-08-05T09:54:58.674Z,3.45
2022-08-05T10:00:04.770Z,5.65
2022-08-05T10:05:15.617Z,10.07
2022-08-05T10:10:17.772Z,5.78
2022-08-05T10:15:26.149Z,8.73
2022-08-05T10:20:25.062Z,7.40
2022-08-05T10:25:23.446Z,15.85
2022-08-05T10:32:46.881Z,11.73
2022-08-05T10:35:44.336Z,7.72
2022-08-05T10:40:59.875Z,8.27
2022-08-05T10:46:06.554Z,6.60
2022-08-05T10:51:22.520Z,3.33
2022-08-05T10:56:25.971Z,9.10
2022-08-05T11:01:55.644Z,5.22
2022-08-05T11:07:08.236Z,5.18
2022-08-05T11:12:07.029Z,4.20
2022-08-05T11:17:58.985Z,4.53
2022-08-05T11:23:02.200Z,4.25
2022-08-05T11:28:40.376Z,9.43
2022-08-05T11:33:54.009Z,3.15
2022-08-05T11:38:54.814Z,5.88
2022-08-05T11:44:06.692Z,4.57
2022-08-05T11:49:10.171Z,3.45
2022-08-05T11:54:08.372Z,6.65
2022-08-05T11:59:16.025Z,6.65
2022-08-05T12:04:20.907Z,5.70
2022-08-05T12:09:38.680Z,7.82
2022-08-05T12:14:47.228Z,12.35
2022-08-05T12:20:16.991Z,6.57
2022-08-05T12:25:08.334Z,8.20
2022-08-05T12:30:15.485Z,5.18
2022-08-05T12:35:16.889Z,5.35
2022-08-05T12:40:26.827Z,11.55
2022-08-05T12:45:42.542Z,7.65
2022-08-05T12:52:11.174Z,4.82
2022-08-05T12:56:35.008Z,4.53
2022-08-05T13:02:02.216Z,10.13
2022-08-05T13:06:59.189Z,7.07
2022-08-05T13:12:05.087Z,5.13
2022-08-05T13:17:10.865Z,7.47
2022-08-05T13:22:12.215Z,6.57
2022-08-05T13:27:10.948Z,7.65
2022-08-05T13:32:09.605Z,6.88
2022-08-05T13:37:08.353Z,6.10
2022-08-05T13:42:14.773Z,8.13
2022-08-05T13:47:34.568Z,10.82
2022-08-05T13:52:31.785Z,4.10
2022-08-05T13:57:51.375Z,12.88
2022-08-05T14:02:50.233Z,11.43
2022-08-05T14:07:59.845Z,5.20
2022-08-05T14:13:07.794Z,8.75
2022-08-05T14:18:14.979Z,4.68
2022-08-05T14:23:23.422Z,6.78
2022-08-05T14:28:27.006Z,5.68
2022-08-05T14:33:25.576Z,3.03
2022-08-05T14:38:31.935Z,9.40
2022-08-05T14:44:00.073Z,8.73
2022-08-05T14:48:50.459Z,7.80
2022-08-05T14:54:26.525Z,17.35
2022-08-05T14:59:10.478Z,18.90
2022-08-05T15:04:11.444Z,3.22
2022-08-05T15:09:09.923Z,5.20
2022-08-05T15:14:10.044Z,5.65
2022-08-05T15:19:08.186Z,5.93
2022-08-05T15:24:21.504Z,9.43
2022-08-05T15:29:21.811Z,3.95
2022-08-05T15:34:32.086Z,6.03
2022-08-05T15:40:59.539Z,8.25
2022-08-05T15:44:51.529Z,6.43
2022-08-05T15:49:56.770Z,6.90
2022-08-05T15:54:56.962Z,7.20
2022-08-05T15:59:57.722Z,15.23
2022-08-05T16:04:56.045Z,9.00
2022-08-05T16:09:54.350Z,7.75
2022-08-05T16:14:52.421Z,6.20
2022-08-05T16:20:05.217Z,6.55
2022-08-05T16:25:10.249Z,6.00
2022-08-05T16:30:23.092Z,17.27
2022-08-05T16:35:28.365Z,12.07
2022-08-05T16:40:30.471Z,6.88
2022-08-05T16:46:03.549Z,10.55
2022-08-05T16:50:48.191Z,7.38
2022-08-05T16:55:47.521Z,4.35
2022-08-05T17:00:46.909Z,8.43
2022-08-05T17:05:53.214Z,9.27
2022-08-05T17:10:52.494Z,5.45
2022-08-05T17:15:55.556Z,9.02
2022-08-05T17:21:07.545Z,10.52
2022-08-05T17:26:05.699Z,10.18
2022-08-05T17:31:08.151Z,13.05
2022-08-05T17:36:33.959Z,9.32
2022-08-05T17:42:17.691Z,6.68
2022-08-05T17:46:44.836Z,11.18
2022-08-05T17:51:46.133Z,6.82
2022-08-05T17:56:48.952Z,8.00
2022-08-05T18:01:50.537Z,5.95
2022-08-05T18:06:50.233Z,6.35
2022-08-05T18:11:52.378Z,5.30
2022-08-05T18:16:52.093Z,6.07
2022-08-05T18:22:09.702Z,6.60
2022-08-05T18:27:18.607Z,6.30
2022-08-05T18:32:17.311Z,4.72
2022-08-05T18:37:34.019Z,7.82
2022-08-05T18:42:33.152Z,5.70
2022-08-05T18:47:31.430Z,7.72
2022-08-05T18:52:35.597Z,7.18
2022-08-05T18:57:50.100Z,4.88
2022-08-05T19:02:51.791Z,4.53
2022-08-05T19:07:52.603Z,4.85
2022-08-05T19:12:51.126Z,5.45
2022-08-05T19:17:59.788Z,6.68
2022-08-05T19:23:22.574Z,6.45
2022-08-05T19:28:27.061Z,5.85
2022-08-05T19:33:35.491Z,5.65
2022-08-05T19:38:36.596Z,4.63
2022-08-05T19:44:05.375Z,5.30
2022-08-05T19:48:52.998Z,7.85
2022-08-05T19:54:04.634Z,6.90
2022-08-05T19:59:51.202Z,5.45
2022-08-05T20:04:22.571Z,5.13
2022-08-05T20:09:23.341Z,5.95
2022-08-05T20:14:27.001Z,5.07
2022-08-05T20:19:25.479Z,9.07
2022-08-05T20:24:35.922Z,5.72
2022-08-05T20:29:34.109Z,6.85
2022-08-05T20:34:33.535Z,5.47
2022-08-05T20:39:36.544Z,4.80
2022-08-05T20:44:37.948Z,8.82
2022-08-05T20:49:39.672Z,7.97
2022-08-05T20:54:43.573Z,5.20
2022-08-05T21:00:20.723Z,5.78
2022-08-05T21:05:16.196Z,5.57
2022-08-05T21:10:14.420Z,5.35
2022-08-05T21:15:14.020Z,4.88
2022-08-05T21:20:13.326Z,10.10
2022-08-05T21:25:33.475Z,8.27
2022-08-05T21:30:33.116Z,9.48
2022-08-05T21:35:55.956Z,7.30
2022-08-05T21:40:49.498Z,5.38
2022-08-05T21:45:56.533Z,6.43
2022-08-05T21:50:55.833Z,6.47
2022-08-05T21:56:04.371Z,6.80
2022-08-05T22:01:06.357Z,13.50
2022-08-05T22:06:08.876Z,9.13
2022-08-05T22:11:08.585Z,9.65
2022-08-05T22:16:32.172Z,7.40
2022-08-05T22:21:28.215Z,8.57
2022-08-05T22:26:49.702Z,8.20
2022-08-05T22:31:55.201Z,7.20
2022-08-05T22:36:59.514Z,11.02
2022-08-05T22:42:09.740Z,6.82
2022-08-05T22:47:12.472Z,7.97
2022-08-05T22:52:32.271Z,6.28
2022-08-05T22:57:34.206Z,10.85
2022-08-05T23:02:40.078Z,11.02
2022-08-05T23:07:48.472Z,10.55
2022-08-05T23:12:51.149Z,10.70
2022-08-05T23:18:00.485Z,6.70
2022-08-05T23:23:05.709Z,11.45
2022-08-05T23:28:07.860Z,7.18
2022-08-05T23:33:07.468Z,10.38
2022-08-05T23:38:20.806Z,12.67
2022-08-05T23:43:24.508Z,7.97
2022-08-05T23:48:36.647Z,10.43
2022-08-05T23:53:46.402Z,12.80
2022-08-05T23:58:45.158Z,10.32
